Impacts TAF Board
For situational awareness. Not to be used for flight planning purposes.
IDs:

KCLE - Cleveland/Hopkins In, OH, US

Issued at 0545 UTC 24 Jan 2019
Updated at 0614 UTC 24 Jan 2019
Potential Impact None Slight Moderate High
Time<<24/19Z 24/20Z 24/21Z 24/22Z 24/23Z 25/00Z 25/01Z 25/02Z 25/03Z 25/04Z 25/05Z 25/06Z 25/07Z>>
Type PRVL PRVL PRVL PRVL PRVL PRVL PRVL PRVL PRVL PRVL PRVL PRVL PRVL
VIS >6 >6 >6 >6 >6 >6 >6 >6 >6 >6 >6 >6 >6
CIG 15 40 40 40 40 40 40 40 40 40 40 40 40
Cover BKN BKN BKN BKN BKN BKN BKN BKN BKN BKN BKN BKN BKN
FltCat MVFR VFR VFR VFR VFR VFR VFR VFR VFR VFR VFR VFR VFR
WX -- -- -- -- -- -- -- -- -SHSN -SHSN -SHSN -SHSN -SHSN
WDir 280 260 260 260 260 260 260 260 260 260 260 260 260
WSpd 11 11 11 11 11 11 11 11 14 14 14 14 14
WGst -- -- -- -- -- -- -- -- 24 24 24 24 24
Raw TAF
KCLE 240545Z 2406/2512 28008KT P6SM -RA OVC007
  FM240800 28008KT 3SM -RASN OVC006
  TEMPO 2408/2410 1SM -RASN OVC005
  FM241100 30009KT P6SM OVC008
  FM241600 28011KT P6SM BKN015
  FM242000 26011KT P6SM BKN040
  FM250300 26014G24KT P6SM -SHSN BKN040


METAR Board
Radar Display
Forecast Discussion
For situational awareness. Not to be used for flight planning purposes.